Time;durP1;ratioP1;P1;durP2;ratioP2;P2;SDS_P1;SDS_P2;PMS_P1;PMS_P2;Temp;Humidity;BMP_temperature;BMP_pressure;BME280_temperature;BME280_humidity;BME280_pressure;Samples;Min_cycle;Max_cycle;Signal;HPM_P1;HPM_P2
2022/12/06 00:01:17;;;;;;;;;;;;;;;5.71;100.00;100636.19;5590157;31;34679;-74
2022/12/06 00:04:25;;;;;;;;;;;;;;;5.71;100.00;100638.81;5576769;31;35111;-74
2022/12/06 00:07:33;;;;;;;;;;;;;;;5.70;100.00;100637.97;5575486;31;34073;-73
2022/12/06 00:10:44;;;;;;;;;;;;;;;5.59;100.00;100632.78;5569457;32;34311;-74
2022/12/06 00:13:59;;;;;;;;;;;;;;;5.61;100.00;100626.44;5569625;32;34755;-74
2022/12/06 00:17:09;;;;;;;;;;;;;;;5.61;100.00;100634.34;5569052;32;32776;-74
2022/12/06 00:20:15;;;;;;;;;;;;;;;5.57;100.00;100638.16;5569520;32;34321;-73
2022/12/06 00:23:22;;;;;;;;;;;;;;;5.55;100.00;100634.84;5570239;32;34305;-74
2022/12/06 00:26:36;;;;;;;;;;;;;;;5.53;100.00;100631.50;5570227;32;34834;-74
2022/12/06 00:29:44;;;;;;;;;;;;;;;5.55;100.00;100632.22;5570280;32;34964;-74
2022/12/06 00:32:52;;;;;;;;;;;;;;;5.55;100.00;100624.31;5570072;32;34262;-74
2022/12/06 00:36:00;;;;;;;;;;;;;;;5.60;100.00;100631.81;5570210;32;34633;-74
2022/12/06 00:39:10;;;;;;;;;;;;;;;5.58;100.00;100624.06;5569495;32;34245;-74
2022/12/06 00:42:18;;;;;;;;;;;;;;;5.59;100.00;100603.84;5569331;32;34339;-74
2022/12/06 00:45:27;;;;;;;;;;;;;;;5.61;100.00;100597.50;5570042;32;34880;-75
2022/12/06 00:48:37;;;;;;;;;;;;;;;5.56;100.00;100602.31;5557366;32;36310;-77
2022/12/06 00:51:44;;;;;;;;;;;;;;;5.53;100.00;100593.81;5569309;32;34267;-77
2022/12/06 00:54:53;;;;;;;;;;;;;;;5.53;100.00;100593.81;5571600;32;34696;-75
2022/12/06 00:58:01;;;;;;;;;;;;;;;5.45;100.00;100585.75;5570050;32;34287;-75
2022/12/06 01:01:14;;;;;;;;;;;;;;;5.37;100.00;100585.59;5569831;32;34233;-75
2022/12/06 01:04:22;;;;;;;;;;;;;;;5.31;100.00;100579.03;5569684;32;34635;-76
2022/12/06 01:07:30;;;;;;;;;;;;;;;5.36;100.00;100583.91;5556284;32;33732;-74
2022/12/06 01:10:36;;;;;;;;;;;;;;;5.29;100.00;100573.06;5580804;31;34304;-74
2022/12/06 01:13:44;;;;;;;;;;;;;;;5.19;100.00;100559.84;5575038;31;34757;-74
2022/12/06 01:16:51;;;;;;;;;;;;;;;5.15;100.00;100555.81;5589130;31;35534;-73
2022/12/06 01:19:58;;;;;;;;;;;;;;;5.11;100.00;100561.47;5575163;31;35748;-74
2022/12/06 01:23:04;;;;;;;;;;;;;;;5.08;100.00;100559.09;5575762;31;34909;-75
2022/12/06 01:26:17;;;;;;;;;;;;;;;5.03;100.00;100553.38;5588910;31;34360;-75
2022/12/06 01:29:23;;;;;;;;;;;;;;;4.95;100.00;100553.16;5588939;31;34568;-75
2022/12/06 01:32:29;;;;;;;;;;;;;;;4.98;100.00;100555.56;5575061;31;35135;-75
2022/12/06 01:35:41;;;;;;;;;;;;;;;4.97;100.00;100540.75;5575714;31;34903;-75
2022/12/06 01:38:48;;;;;;;;;;;;;;;4.94;100.00;100528.66;5588651;31;34518;-75
2022/12/06 01:41:55;;;;;;;;;;;;;;;4.88;100.00;100515.22;5588726;31;34891;-75
2022/12/06 01:45:04;;;;;;;;;;;;;;;4.81;100.00;100504.38;5588627;31;34382;-74
2022/12/06 01:48:09;;;;;;;;;;;;;;;4.78;100.00;100509.91;5588590;31;34233;-76
2022/12/06 01:51:19;;;;;;;;;;;;;;;4.79;100.00;100486.09;5588698;31;33932;-75
2022/12/06 01:54:26;;;;;;;;;;;;;;;4.74;100.00;100490.09;5588384;31;34657;-75
2022/12/06 01:57:37;;;;;;;;;;;;;;;4.68;100.00;100475.66;5588477;31;34914;-74
2022/12/06 02:00:45;;;;;;;;;;;;;;;4.63;100.00;100483.09;5575124;31;34821;-75
2022/12/06 02:03:54;;;;;;;;;;;;;;;4.62;100.00;100481.44;5588229;31;34453;-74
2022/12/06 02:07:02;;;;;;;;;;;;;;;4.58;100.00;100490.53;5576899;31;34858;-75
2022/12/06 02:10:09;;;;;;;;;;;;;;;4.60;100.00;100482.53;5590899;31;34923;-74
2022/12/06 02:13:15;;;;;;;;;;;;;;;4.56;100.00;100494.22;5591019;31;34914;-74
2022/12/06 02:16:23;;;;;;;;;;;;;;;4.67;100.00;100533.59;5577909;31;34926;-74
2022/12/06 02:19:46;;;;;;;;;;;;;;;4.70;100.00;100549.09;5577013;31;34345;-76
2022/12/06 02:23:11;;;;;;;;;;;;;;;4.72;100.00;100545.41;5577837;31;34492;-76
2022/12/06 02:26:36;;;;;;;;;;;;;;;4.67;100.00;100531.81;5591023;31;34289;-75
2022/12/06 02:29:45;;;;;;;;;;;;;;;4.66;100.00;100529.31;5590962;31;35127;-75
2022/12/06 02:32:58;;;;;;;;;;;;;;;4.64;100.00;100539.97;5590859;31;34934;-76
2022/12/06 02:36:16;;;;;;;;;;;;;;;4.60;100.00;100541.13;5590819;31;34936;-76
2022/12/06 02:39:30;;;;;;;;;;;;;;;4.57;100.00;100533.53;5590855;31;34624;-74
2022/12/06 02:42:46;;;;;;;;;;;;;;;4.65;100.00;100538.13;5577088;31;34405;-75
2022/12/06 02:45:55;;;;;;;;;;;;;;;4.69;100.00;100540.41;5590824;31;34132;-75
2022/12/06 02:49:04;;;;;;;;;;;;;;;4.66;100.00;100551.16;5576696;31;32959;-74
2022/12/06 02:52:12;;;;;;;;;;;;;;;4.67;100.00;100552.84;5590704;31;34954;-76
2022/12/06 02:55:23;;;;;;;;;;;;;;;4.57;100.00;100562.44;5577708;31;34822;-76
2022/12/06 02:58:32;;;;;;;;;;;;;;;4.52;100.00;100540.94;5590684;31;34375;-77
2022/12/06 03:01:45;;;;;;;;;;;;;;;4.49;100.00;100530.69;5577995;31;34967;-77
2022/12/06 03:04:57;;;;;;;;;;;;;;;4.43;100.00;100535.59;5590849;31;34898;-75
2022/12/06 03:08:05;;;;;;;;;;;;;;;4.50;100.00;100519.25;5590506;31;34919;-76
2022/12/06 03:11:12;;;;;;;;;;;;;;;4.48;100.00;100499.28;5577047;31;34272;-75
2022/12/06 03:14:25;;;;;;;;;;;;;;;4.52;100.00;100488.41;5590403;31;34443;-76
2022/12/06 03:17:45;;;;;;;;;;;;;;;4.44;100.00;100490.00;5576233;31;34806;-75
2022/12/06 03:20:57;;;;;;;;;;;;;;;4.49;100.00;100487.84;5590369;31;35139;-75
2022/12/06 03:24:06;;;;;;;;;;;;;;;4.44;100.00;100488.22;5590590;31;34860;-75
2022/12/06 03:27:16;;;;;;;;;;;;;;;4.41;100.00;100480.56;5577207;31;34235;-75
2022/12/06 03:30:22;;;;;;;;;;;;;;;4.40;100.00;100465.78;5576378;31;35284;-75
2022/12/06 03:33:34;;;;;;;;;;;;;;;4.35;100.00;100453.03;5590493;31;34770;-74
2022/12/06 03:36:44;;;;;;;;;;;;;;;4.33;100.00;100440.97;5590385;31;34327;-75
2022/12/06 03:40:08;;;;;;;;;;;;;;;4.37;100.00;100431.88;5577194;31;34176;-76
2022/12/06 03:43:17;;;;;;;;;;;;;;;4.32;100.00;100423.53;5576957;31;34628;-74
2022/12/06 03:46:36;;;;;;;;;;;;;;;4.28;100.00;100433.47;5590184;31;34514;-75
2022/12/06 03:49:54;;;;;;;;;;;;;;;4.23;100.00;100445.31;5590673;31;34160;-75
2022/12/06 03:53:02;;;;;;;;;;;;;;;4.27;100.00;100444.94;5576802;31;34894;-75
2022/12/06 03:56:08;;;;;;;;;;;;;;;4.29;100.00;100429.91;5590295;31;34441;-77
2022/12/06 03:59:15;;;;;;;;;;;;;;;4.32;100.00;100442.75;5590107;31;34346;-73
2022/12/06 04:02:22;;;;;;;;;;;;;;;4.28;100.00;100411.62;5590028;31;34324;-74
2022/12/06 04:05:32;;;;;;;;;;;;;;;4.22;100.00;100412.97;5590145;31;34225;-76
2022/12/06 04:08:38;;;;;;;;;;;;;;;4.27;100.00;100409.97;5527564;31;2001006;-73
2022/12/06 04:11:46;;;;;;;;;;;;;;;4.21;100.00;100415.75;5569152;32;34752;-74
2022/12/06 04:14:52;;;;;;;;;;;;;;;4.16;100.00;100410.88;5569676;32;34759;-73
2022/12/06 04:18:15;;;;;;;;;;;;;;;4.18;100.00;100410.72;5570250;32;34309;-74
2022/12/06 04:24:40;;;;;;;;;;;;;;;4.24;100.00;100431.22;5568850;32;33193;-73
2022/12/06 04:45:10;;;;;;;;;;;;;;;4.28;100.00;100467.63;5527580;32;34134;-72
2022/12/06 04:48:17;;;;;;;;;;;;;;;4.37;100.00;100477.37;5570248;32;34731;-72
2022/12/06 04:51:24;;;;;;;;;;;;;;;4.30;100.00;100465.72;5569586;32;34558;-72
2022/12/06 04:54:30;;;;;;;;;;;;;;;4.28;100.00;100464.16;5569811;32;33782;-71
2022/12/06 04:57:35;;;;;;;;;;;;;;;4.29;100.00;100469.28;5569903;32;34138;-71
2022/12/06 05:00:42;;;;;;;;;;;;;;;4.36;100.00;100465.19;5569152;32;35020;-72
2022/12/06 05:03:50;;;;;;;;;;;;;;;4.41;100.00;100467.44;5569856;32;34341;-71
2022/12/06 05:06:56;;;;;;;;;;;;;;;4.32;100.00;100469.03;5569564;32;34268;-71
2022/12/06 05:10:04;;;;;;;;;;;;;;;4.28;100.00;100456.28;5576825;31;34237;-71
2022/12/06 05:13:18;;;;;;;;;;;;;;;4.30;100.00;100460.47;5589066;31;34716;-71
2022/12/06 05:16:24;;;;;;;;;;;;;;;4.32;100.00;100442.75;5575652;31;34883;-70
2022/12/06 05:19:33;;;;;;;;;;;;;;;4.27;100.00;100442.31;5589073;31;34285;-70
2022/12/06 05:22:40;;;;;;;;;;;;;;;4.26;100.00;100438.00;5575024;31;34279;-71
2022/12/06 05:25:45;;;;;;;;;;;;;;;4.28;100.00;100443.16;5588745;31;34477;-70
2022/12/06 05:28:54;;;;;;;;;;;;;;;4.31;100.00;100451.59;5588819;31;34205;-70
2022/12/06 05:32:02;;;;;;;;;;;;;;;4.27;100.00;100455.44;5588729;31;34960;-70
2022/12/06 05:35:10;;;;;;;;;;;;;;;4.31;100.00;100450.75;5588725;31;34089;-69
2022/12/06 05:38:17;;;;;;;;;;;;;;;4.37;100.00;100451.09;5588708;31;34162;-69
2022/12/06 05:41:23;;;;;;;;;;;;;;;4.33;100.00;100459.34;5589993;31;34896;-70
2022/12/06 05:44:29;;;;;;;;;;;;;;;4.34;100.00;100461.03;5591373;31;34253;-69
2022/12/06 05:47:38;;;;;;;;;;;;;;;4.45;100.00;100468.03;5591219;31;34237;-70
2022/12/06 05:50:48;;;;;;;;;;;;;;;4.47;100.00;100461.69;5591208;31;34208;-70
2022/12/06 05:53:56;;;;;;;;;;;;;;;4.26;100.00;100450.34;5590883;31;34441;-70
2022/12/06 05:57:00;;;;;;;;;;;;;;;4.20;100.00;100440.31;5591154;31;34319;-70
2022/12/06 06:00:05;;;;;;;;;;;;;;;4.24;100.00;100436.47;5576946;31;34185;-69
2022/12/06 06:03:12;;;;;;;;;;;;;;;4.24;100.00;100441.72;5591089;31;34208;-70
2022/12/06 06:06:18;;;;;;;;;;;;;;;4.23;100.00;100445.31;5591016;31;34871;-69
2022/12/06 06:09:22;;;;;;;;;;;;;;;4.23;100.00;100445.31;5590605;31;34525;-69
2022/12/06 06:12:27;;;;;;;;;;;;;;;4.25;100.00;100435.53;5577347;31;34374;-70
2022/12/06 06:15:32;;;;;;;;;;;;;;;4.37;100.00;100434.50;5590887;31;34443;-69
2022/12/06 06:18:35;;;;;;;;;;;;;;;4.29;100.00;100422.03;5576836;31;34639;-70
2022/12/06 06:21:39;;;;;;;;;;;;;;;4.30;100.00;100423.69;5590804;31;34582;-70
2022/12/06 06:24:42;;;;;;;;;;;;;;;4.38;100.00;100426.50;5576954;31;34415;-70
2022/12/06 06:27:46;;;;;;;;;;;;;;;4.37;100.00;100422.22;5590716;31;34915;-70
2022/12/06 06:30:52;;;;;;;;;;;;;;;4.36;100.00;100422.31;5564217;31;34266;-70
2022/12/06 06:33:56;;;;;;;;;;;;;;;4.42;100.00;100415.72;5590565;31;34885;-70
2022/12/06 06:37:00;;;;;;;;;;;;;;;4.36;100.00;100404.78;5576928;31;34630;-70
2022/12/06 06:40:04;;;;;;;;;;;;;;;4.45;100.00;100411.09;5576549;31;34971;-70
2022/12/06 06:43:17;;;;;;;;;;;;;;;4.35;100.00;100415.44;5576692;31;34774;-69
2022/12/06 06:46:21;;;;;;;;;;;;;;;4.29;100.00;100410.69;5589670;31;34609;-70
2022/12/06 06:49:26;;;;;;;;;;;;;;;4.28;100.00;100411.62;5575247;31;33121;-69
2022/12/06 06:52:30;;;;;;;;;;;;;;;4.27;100.00;100407.34;5575514;31;34160;-70
2022/12/06 06:55:35;;;;;;;;;;;;;;;4.25;100.00;100398.78;5590106;31;35137;-70
2022/12/06 06:58:38;;;;;;;;;;;;;;;4.31;100.00;100411.38;5590261;31;34684;-70
2022/12/06 07:01:42;;;;;;;;;;;;;;;4.41;100.00;100414.06;5590237;31;34235;-70
2022/12/06 07:04:46;;;;;;;;;;;;;;;4.41;100.00;100409.66;5590005;31;34345;-69
2022/12/06 07:07:51;;;;;;;;;;;;;;;4.43;100.00;100409.53;5575829;31;34640;-70
2022/12/06 07:10:55;;;;;;;;;;;;;;;4.32;100.00;100402.53;5589849;31;34460;-69
2022/12/06 07:14:01;;;;;;;;;;;;;;;4.29;100.00;100393.13;5590293;31;34134;-70
2022/12/06 07:17:05;;;;;;;;;;;;;;;4.29;100.00;100402.81;5576529;31;34874;-70
2022/12/06 07:20:09;;;;;;;;;;;;;;;4.31;100.00;100399.06;5589505;31;34852;-69
2022/12/06 07:23:12;;;;;;;;;;;;;;;4.34;100.00;100390.13;5576201;31;34471;-70
2022/12/06 07:26:20;;;;;;;;;;;;;;;4.39;100.00;100390.56;5589945;31;35113;-70
2022/12/06 07:29:24;;;;;;;;;;;;;;;4.50;100.00;100403.66;5590250;31;34384;-70
2022/12/06 07:32:27;;;;;;;;;;;;;;;4.52;100.00;100412.22;5563672;31;33049;-70
2022/12/06 07:35:32;;;;;;;;;;;;;;;4.44;100.00;100416.44;5590123;31;34768;-70
2022/12/06 07:38:56;;;;;;;;;;;;;;;4.46;100.00;100423.22;5589878;31;34300;-70
2022/12/06 07:45:22;;;;;;;;;;;;;;;4.52;100.00;100406.97;5590018;31;34364;-70
2022/12/06 07:48:26;;;;;;;;;;;;;;;4.51;100.00;100394.78;5576483;31;34606;-70
2022/12/06 07:51:30;;;;;;;;;;;;;;;4.45;100.00;100379.56;5576136;31;35057;-71
2022/12/06 07:54:34;;;;;;;;;;;;;;;4.46;100.00;100381.19;5589659;31;34311;-71
2022/12/06 07:57:37;;;;;;;;;;;;;;;4.53;100.00;100394.66;5576158;31;34613;-71
2022/12/06 08:00:46;;;;;;;;;;;;;;;4.60;100.00;100394.00;5589877;31;34897;-71
2022/12/06 08:03:54;;;;;;;;;;;;;;;4.47;100.00;100400.44;5589059;31;34590;-71
2022/12/06 08:06:59;;;;;;;;;;;;;;;4.47;100.00;100403.06;5589863;31;34927;-71
2022/12/06 08:10:04;;;;;;;;;;;;;;;4.58;100.00;100398.56;5589993;31;34959;-71
2022/12/06 08:13:07;;;;;;;;;;;;;;;4.68;100.00;100406.50;5576452;31;34137;-71
2022/12/06 08:16:12;;;;;;;;;;;;;;;4.74;100.00;100414.69;5589608;31;34871;-69
2022/12/06 08:19:17;;;;;;;;;;;;;;;4.80;100.00;100416.81;5576456;31;34277;-71
2022/12/06 08:22:22;;;;;;;;;;;;;;;4.73;100.00;100417.47;5589606;31;34799;-70
2022/12/06 08:25:26;;;;;;;;;;;;;;;4.90;100.00;100424.75;5575655;31;33664;-70
2022/12/06 08:28:30;;;;;;;;;;;;;;;4.81;100.00;100422.91;5589375;31;34673;-70
2022/12/06 08:31:35;;;;;;;;;;;;;;;4.64;100.00;100437.47;5589065;31;34862;-70
2022/12/06 08:34:39;;;;;;;;;;;;;;;4.59;100.00;100436.19;5589521;31;34229;-71
2022/12/06 08:37:43;;;;;;;;;;;;;;;4.59;100.00;100431.78;5589865;31;34598;-71
2022/12/06 08:40:47;;;;;;;;;;;;;;;4.69;100.00;100431.84;5589636;31;34396;-70
2022/12/06 08:43:50;;;;;;;;;;;;;;;4.75;100.00;100426.87;5589946;31;34627;-70
2022/12/06 08:46:54;;;;;;;;;;;;;;;4.91;100.00;100436.94;5575645;31;35779;-71
2022/12/06 08:49:57;;;;;;;;;;;;;;;4.99;100.00;100441.53;5576057;31;34293;-71
2022/12/06 08:53:02;;;;;;;;;;;;;;;5.12;100.00;100434.28;5575320;31;32919;-73
2022/12/06 08:56:04;;;;;;;;;;;;;;;5.39;100.00;100431.06;5562452;31;33586;-71
2022/12/06 08:59:08;;;;;;;;;;;;;;;5.30;100.00;100432.69;5575308;31;35151;-73
2022/12/06 09:02:12;;;;;;;;;;;;;;;5.50;100.00;100438.84;5589270;31;34228;-74
2022/12/06 09:05:15;;;;;;;;;;;;;;;5.60;100.00;100444.97;5589209;31;34189;-72
2022/12/06 09:08:19;;;;;;;;;;;;;;;5.43;100.00;100443.81;5589168;31;34157;-73
2022/12/06 09:11:25;;;;;;;;;;;;;;;5.40;100.00;100433.56;5588769;31;34153;-74
2022/12/06 09:14:30;;;;;;;;;;;;;;;5.22;100.00;100433.37;5576286;31;34515;-74
2022/12/06 09:17:34;;;;;;;;;;;;;;;4.96;100.00;100434.75;5595489;31;34337;-74
2022/12/06 09:20:39;;;;;;;;;;;;;;;4.89;100.00;100428.34;5581774;31;34876;-76
2022/12/06 09:23:43;;;;;;;;;;;;;;;5.05;100.00;100425.25;5595329;31;34327;-79
2022/12/06 09:26:46;;;;;;;;;;;;;;;4.88;100.00;100426.69;5596100;31;34804;-78
2022/12/06 09:29:54;;;;;;;;;;;;;;;4.95;100.00;100430.44;5581162;31;35359;-75
2022/12/06 09:32:58;;;;;;;;;;;;;;;4.98;100.00;100432.00;5595577;31;34602;-74
2022/12/06 09:36:12;;;;;;;;;;;;;;;5.16;100.00;100427.78;5595146;31;34088;-75
2022/12/06 09:39:23;;;;;;;;;;;;;;;5.24;100.00;100428.78;5595179;31;34396;-73
2022/12/06 09:42:37;;;;;;;;;;;;;;;5.50;100.00;100423.06;5581465;31;34780;-74
2022/12/06 09:46:12;;;;;;;;;;;;;;;5.55;100.00;100423.50;5581476;31;34172;-75
2022/12/06 09:49:19;;;;;;;;;;;;;;;5.78;100.00;100429.34;5560591;31;34722;-73
2022/12/06 09:52:25;;;;;;;;;;;;;;;5.69;100.00;100426.56;5580700;31;34399;-73
2022/12/06 09:55:41;;;;;;;;;;;;;;;5.69;100.00;100431.00;5594867;31;34242;-74
2022/12/06 09:58:50;;;;;;;;;;;;;;;5.62;100.00;100435.12;5581237;31;34730;-72
2022/12/06 10:02:12;;;;;;;;;;;;;;;5.55;100.00;100432.22;5568056;31;35552;-73
2022/12/06 10:05:19;;;;;;;;;;;;;;;5.71;100.00;100433.50;5594727;31;34305;-71
2022/12/06 10:08:34;;;;;;;;;;;;;;;5.66;100.00;100424.19;5594426;31;34354;-71
2022/12/06 10:11:41;;;;;;;;;;;;;;;5.73;100.00;100421.03;5594248;31;34828;-72
2022/12/06 10:15:02;;;;;;;;;;;;;;;5.99;100.00;100415.16;5594273;31;34118;-73
2022/12/06 10:18:25;;;;;;;;;;;;;;;5.91;100.00;100419.41;5594384;31;34514;-74
2022/12/06 10:21:41;;;;;;;;;;;;;;;6.06;100.00;100411.00;5594624;31;34227;-71
2022/12/06 10:25:18;;;;;;;;;;;;;;;6.05;100.00;100406.69;5594277;31;34970;-73
2022/12/06 10:28:37;;;;;;;;;;;;;;;6.22;100.00;100405.19;5551261;31;34719;-73
2022/12/06 10:31:41;;;;;;;;;;;;;;;6.31;100.00;100398.22;5590812;31;33787;-72
2022/12/06 10:34:58;;;;;;;;;;;;;;;5.95;100.00;100390.06;5576816;31;34418;-72
2022/12/06 10:38:22;;;;;;;;;;;;;;;5.55;100.00;100386.66;5576393;31;33140;-70
2022/12/06 10:41:31;;;;;;;;;;;;;;;5.38;100.00;100368.87;5590657;31;34305;-72
2022/12/06 10:44:43;;;;;;;;;;;;;;;5.21;100.00;100365.94;5590572;31;34503;-72
2022/12/06 10:47:46;;;;;;;;;;;;;;;5.24;100.00;100356.94;5590508;31;34392;-71
2022/12/06 10:50:54;;;;;;;;;;;;;;;5.37;100.00;100354.09;5590425;31;34366;-70
2022/12/06 10:54:03;;;;;;;;;;;;;;;5.41;100.00;100363.38;5592528;31;34376;-73
2022/12/06 10:57:12;;;;;;;;;;;;;;;5.52;100.00;100365.84;5577396;31;34735;-73
2022/12/06 11:00:21;;;;;;;;;;;;;;;5.66;100.00;100354.97;5577740;31;34240;-71
2022/12/06 11:03:28;;;;;;;;;;;;;;;5.72;100.00;100359.66;5589875;31;34871;-72
2022/12/06 11:06:36;;;;;;;;;;;;;;;5.89;100.00;100358.19;5590608;31;34468;-71
2022/12/06 11:09:44;;;;;;;;;;;;;;;5.80;100.00;100369.53;5590142;31;34220;-73
2022/12/06 11:12:54;;;;;;;;;;;;;;;5.82;100.00;100370.19;5590127;31;35561;-72
2022/12/06 11:16:04;;;;;;;;;;;;;;;5.96;100.00;100351.38;5590292;31;34250;-71
2022/12/06 11:19:14;;;;;;;;;;;;;;;5.97;100.00;100356.53;5589965;31;34228;-71
2022/12/06 11:22:27;;;;;;;;;;;;;;;6.08;100.00;100350.28;5590131;31;34591;-72
2022/12/06 11:25:39;;;;;;;;;;;;;;;5.94;100.00;100345.44;5563449;31;34380;-71
2022/12/06 11:28:54;;;;;;;;;;;;;;;6.03;100.00;100336.72;5590307;31;34474;-72
2022/12/06 11:32:06;;;;;;;;;;;;;;;6.23;100.00;100351.53;5589806;31;34869;-72
2022/12/06 11:35:14;;;;;;;;;;;;;;;6.39;100.00;100343.03;5590119;31;34258;-72
2022/12/06 11:38:17;;;;;;;;;;;;;;;6.59;100.00;100335.91;5574522;31;34670;-71
2022/12/06 11:41:24;;;;;;;;;;;;;;;6.44;100.00;100348.69;5589844;31;34178;-72
2022/12/06 11:44:35;;;;;;;;;;;;;;;6.69;100.00;100345.44;5576586;31;34144;-72
2022/12/06 11:47:38;;;;;;;;;;;;;;;6.80;100.00;100339.16;5576335;31;34174;-71
2022/12/06 11:50:41;;;;;;;;;;;;;;;6.36;100.00;100357.31;5589962;31;34821;-71
2022/12/06 11:53:51;;;;;;;;;;;;;;;6.16;100.00;100357.47;5576309;31;34027;-71
2022/12/06 11:56:57;;;;;;;;;;;;;;;6.10;100.00;100362.31;5591911;31;34534;-70
2022/12/06 12:00:06;;;;;;;;;;;;;;;5.97;100.00;100353.06;5589749;31;34242;-71
2022/12/06 12:03:27;;;;;;;;;;;;;;;5.84;100.00;100361.22;5575867;31;34437;-70
2022/12/06 12:06:31;;;;;;;;;;;;;;;5.84;100.00;100358.56;5576214;31;34964;-72
2022/12/06 12:09:44;;;;;;;;;;;;;;;5.82;100.00;100347.34;5575772;31;34291;-71
2022/12/06 12:16:21;;;;;;;;;;;;;;;6.11;100.00;100353.47;5589375;31;34823;-71
2022/12/06 12:19:33;;;;;;;;;;;;;;;6.07;100.00;100357.34;5589038;31;34502;-73
2022/12/06 12:22:40;;;;;;;;;;;;;;;5.80;100.00;100359.81;5575693;31;34207;-72
2022/12/06 12:25:56;;;;;;;;;;;;;;;5.77;100.00;100360.06;5589880;31;34307;-72
2022/12/06 12:29:10;;;;;;;;;;;;;;;5.69;100.00;100346.78;5575570;31;34302;-71
2022/12/06 12:32:17;;;;;;;;;;;;;;;5.82;100.00;100346.50;5589362;31;34797;-73
2022/12/06 12:35:20;;;;;;;;;;;;;;;5.91;100.00;100353.59;5588967;31;34451;-71
2022/12/06 12:38:32;;;;;;;;;;;;;;;5.92;100.00;100363.16;5589499;31;34958;-73
2022/12/06 12:41:40;;;;;;;;;;;;;;;5.85;100.00;100359.41;5589203;31;35086;-71
2022/12/06 12:44:44;;;;;;;;;;;;;;;5.83;100.00;100349.00;5589380;31;34203;-70
2022/12/06 12:47:56;;;;;;;;;;;;;;;6.11;100.00;100348.19;5562481;31;34489;-71
2022/12/06 12:51:01;;;;;;;;;;;;;;;5.98;100.00;100362.63;5588791;31;34611;-70
2022/12/06 12:54:17;;;;;;;;;;;;;;;5.87;100.00;100352.22;5575057;31;33091;-71
2022/12/06 12:57:19;;;;;;;;;;;;;;;5.79;100.00;100358.16;5575697;31;34312;-70
2022/12/06 13:00:27;;;;;;;;;;;;;;;5.81;100.00;100345.66;5575349;31;35141;-72
2022/12/06 13:03:32;;;;;;;;;;;;;;;6.15;100.00;100353.19;5588947;31;34788;-71
2022/12/06 13:07:01;;;;;;;;;;;;;;;6.28;100.00;100344.03;5574516;31;33284;-70
2022/12/06 13:10:10;;;;;;;;;;;;;;;6.17;100.00;100351.25;5589413;31;34131;-68
2022/12/06 13:13:15;;;;;;;;;;;;;;;6.05;100.00;100350.56;5561985;31;34191;-70
2022/12/06 13:16:26;;;;;;;;;;;;;;;5.98;100.00;100352.09;5562268;31;34720;-70
2022/12/06 13:19:34;;;;;;;;;;;;;;;6.14;100.00;100346.25;5589051;31;34313;-71
2022/12/06 13:22:44;;;;;;;;;;;;;;;6.19;100.00;100355.41;5574673;31;33258;-72
2022/12/06 13:25:51;;;;;;;;;;;;;;;6.40;100.00;100348.16;5575034;31;32740;-71
2022/12/06 13:29:03;;;;;;;;;;;;;;;6.08;100.00;100347.66;5588856;31;34252;-72
2022/12/06 13:32:19;;;;;;;;;;;;;;;6.07;100.00;100353.88;5588759;31;34416;-72
2022/12/06 13:35:22;;;;;;;;;;;;;;;6.02;100.00;100354.31;5588610;31;34823;-71
2022/12/06 13:38:29;;;;;;;;;;;;;;;6.00;100.00;100355.44;5574520;31;33113;-71
2022/12/06 13:42:16;;;;;;;;;;;;;;;5.85;100.00;100356.78;5588511;31;34841;-70
2022/12/06 13:44:58;;;;;;;;;;;;;;;5.87;100.00;100342.53;5588393;31;35243;-71
2022/12/06 13:48:02;;;;;;;;;;;;;;;5.90;100.00;100352.78;5574475;31;33043;-70
2022/12/06 13:51:31;;;;;;;;;;;;;;;5.95;100.00;100355.00;5588258;31;35027;-72
2022/12/06 13:54:35;;;;;;;;;;;;;;;5.87;100.00;100350.41;5588347;31;34727;-71
2022/12/06 13:57:39;;;;;;;;;;;;;;;5.99;100.00;100354.59;5588295;31;34350;-71
2022/12/06 14:00:47;;;;;;;;;;;;;;;5.94;100.00;100355.97;5588238;31;34968;-72
2022/12/06 14:03:54;;;;;;;;;;;;;;;5.80;100.00;100349.28;5577431;31;34978;-71
2022/12/06 14:07:02;;;;;;;;;;;;;;;5.58;100.00;100341.63;5590593;31;34878;-70
2022/12/06 14:10:12;;;;;;;;;;;;;;;5.37;100.00;100346.19;5590679;31;34290;-70
2022/12/06 14:13:16;;;;;;;;;;;;;;;5.25;100.00;100342.81;5577283;31;34723;-71
2022/12/06 14:16:33;;;;;;;;;;;;;;;5.28;100.00;100355.69;5563944;31;33489;-70
2022/12/06 14:19:43;;;;;;;;;;;;;;;5.14;100.00;100348.19;5590757;31;34849;-70
2022/12/06 14:22:48;;;;;;;;;;;;;;;5.13;100.00;100346.53;5590760;31;34902;-70
2022/12/06 14:25:51;;;;;;;;;;;;;;;5.16;100.00;100346.25;5563866;31;34766;-71
2022/12/06 14:28:57;;;;;;;;;;;;;;;5.10;100.00;100347.62;5563933;31;34223;-69
2022/12/06 14:32:01;;;;;;;;;;;;;;;5.08;100.00;100349.53;5577058;31;34574;-71
2022/12/06 14:35:07;;;;;;;;;;;;;;;5.05;100.00;100347.19;5590601;31;34130;-71
2022/12/06 14:38:22;;;;;;;;;;;;;;;4.91;100.00;100346.72;5590578;31;34884;-72
2022/12/06 14:44:53;;;;;;;;;;;;;;;4.63;100.00;100349.09;5576283;31;33994;-71
2022/12/06 14:48:04;;;;;;;;;;;;;;;4.57;100.00;100348.78;5589851;31;35211;-72
2022/12/06 14:51:17;;;;;;;;;;;;;;;4.69;100.00;100345.13;5590213;31;34736;-70
2022/12/06 14:54:25;;;;;;;;;;;;;;;4.52;100.00;100346.53;5589923;31;34773;-70
2022/12/06 14:57:30;;;;;;;;;;;;;;;4.65;100.00;100355.03;5589825;31;34692;-70
2022/12/06 15:00:37;;;;;;;;;;;;;;;4.50;100.00;100351.12;5576786;31;34455;-71
2022/12/06 15:03:41;;;;;;;;;;;;;;;4.24;100.00;100353.28;5589795;31;34393;-70
2022/12/06 15:06:53;;;;;;;;;;;;;;;4.17;100.00;100360.00;5589790;31;34834;-70
2022/12/06 15:10:06;;;;;;;;;;;;;;;4.21;100.00;100350.91;5589771;31;34435;-71
2022/12/06 15:13:15;;;;;;;;;;;;;;;4.19;100.00;100352.00;5575302;31;33399;-70
2022/12/06 15:16:19;;;;;;;;;;;;;;;4.31;100.00;100348.34;5575119;31;34574;-70
2022/12/06 15:19:23;;;;;;;;;;;;;;;4.62;100.00;100352.69;5575153;31;34233;-71
2022/12/06 15:22:28;;;;;;;;;;;;;;;4.58;100.00;100353.91;5562587;31;34312;-71
2022/12/06 15:25:31;;;;;;;;;;;;;;;4.48;100.00;100345.16;5575685;31;35378;-71
2022/12/06 15:28:35;;;;;;;;;;;;;;;4.45;100.00;100350.66;5589327;31;34346;-72
2022/12/06 15:31:40;;;;;;;;;;;;;;;4.49;100.00;100362.56;5575367;31;34575;-72
2022/12/06 15:34:45;;;;;;;;;;;;;;;4.23;100.00;100354.25;5575487;31;34262;-71
2022/12/06 15:37:50;;;;;;;;;;;;;;;3.96;100.00;100359.16;5575558;31;34274;-71
2022/12/06 15:40:55;;;;;;;;;;;;;;;3.93;100.00;100362.84;5589726;31;34978;-71
2022/12/06 15:43:59;;;;;;;;;;;;;;;3.85;100.00;100367.91;5589559;31;34250;-71
2022/12/06 15:47:02;;;;;;;;;;;;;;;3.87;100.00;100365.16;5589663;31;34838;-71
2022/12/06 15:50:06;;;;;;;;;;;;;;;3.91;100.00;100366.59;5589431;31;34918;-71
2022/12/06 15:53:14;;;;;;;;;;;;;;;4.33;100.00;100368.28;5589483;31;34324;-71
2022/12/06 15:56:21;;;;;;;;;;;;;;;4.45;100.00;100368.22;5575681;31;34407;-70
2022/12/06 15:59:27;;;;;;;;;;;;;;;4.56;100.00;100386.50;5575861;31;34526;-71
2022/12/06 16:02:33;;;;;;;;;;;;;;;4.50;100.00;100387.88;5575442;31;34791;-70
2022/12/06 16:05:39;;;;;;;;;;;;;;;4.24;100.00;100384.81;5575775;31;35253;-71
2022/12/06 16:08:43;;;;;;;;;;;;;;;4.27;100.00;100379.28;5575490;31;33540;-70
2022/12/06 16:11:48;;;;;;;;;;;;;;;4.19;100.00;100378.25;5589484;31;34950;-72
2022/12/06 16:14:53;;;;;;;;;;;;;;;4.21;100.00;100376.34;5589749;31;33365;-70
2022/12/06 16:17:57;;;;;;;;;;;;;;;4.08;100.00;100383.56;5575444;31;33038;-71
2022/12/06 16:21:05;;;;;;;;;;;;;;;4.05;100.00;100375.94;5563049;31;33801;-71
2022/12/06 16:24:12;;;;;;;;;;;;;;;4.03;100.00;100372.59;5574296;31;34682;-70
2022/12/06 16:27:16;;;;;;;;;;;;;;;3.84;100.00;100383.78;5575541;31;32821;-71
2022/12/06 16:30:32;;;;;;;;;;;;;;;3.93;100.00;100386.47;5575654;31;34052;-71
2022/12/06 16:33:37;;;;;;;;;;;;;;;3.97;100.00;100386.25;5589382;31;34689;-71
2022/12/06 16:36:54;;;;;;;;;;;;;;;4.10;100.00;100379.84;5589097;31;34865;-71